sensor_id;sensor_type;location;lat;lon;timestamp;P1;durP1;ratioP1;P2;durP2;ratioP2
2187;SDS011;1100;52.014;8.540;2022-08-01T00:01:43;9.17;;;5.03;;
2187;SDS011;1100;52.014;8.540;2022-08-01T00:04:09;9.33;;;4.67;;
2187;SDS011;1100;52.014;8.540;2022-08-01T00:06:34;9.53;;;4.30;;
2187;SDS011;1100;52.014;8.540;2022-08-01T00:09:00;8.10;;;4.30;;
2187;SDS011;1100;52.014;8.540;2022-08-01T00:11:25;9.83;;;4.60;;
2187;SDS011;1100;52.014;8.540;2022-08-01T00:13:51;10.23;;;4.63;;
2187;SDS011;1100;52.014;8.540;2022-08-01T00:16:16;7.90;;;4.40;;
2187;SDS011;1100;52.014;8.540;2022-08-01T00:18:41;8.33;;;4.20;;
2187;SDS011;1100;52.014;8.540;2022-08-01T00:21:07;8.40;;;4.30;;
2187;SDS011;1100;52.014;8.540;2022-08-01T00:23:32;8.77;;;4.20;;
2187;SDS011;1100;52.014;8.540;2022-08-01T00:25:58;9.80;;;4.60;;
2187;SDS011;1100;52.014;8.540;2022-08-01T00:28:23;10.07;;;4.40;;
2187;SDS011;1100;52.014;8.540;2022-08-01T00:30:49;7.70;;;4.10;;
2187;SDS011;1100;52.014;8.540;2022-08-01T00:33:14;11.10;;;5.03;;
2187;SDS011;1100;52.014;8.540;2022-08-01T00:35:39;8.55;;;4.30;;
2187;SDS011;1100;52.014;8.540;2022-08-01T00:38:04;11.87;;;4.50;;
2187;SDS011;1100;52.014;8.540;2022-08-01T00:40:30;8.77;;;4.80;;
2187;SDS011;1100;52.014;8.540;2022-08-01T00:42:55;12.13;;;5.50;;
2187;SDS011;1100;52.014;8.540;2022-08-01T00:45:20;10.33;;;5.50;;
2187;SDS011;1100;52.014;8.540;2022-08-01T00:47:46;10.30;;;5.77;;
2187;SDS011;1100;52.014;8.540;2022-08-01T00:50:12;8.90;;;5.10;;
2187;SDS011;1100;52.014;8.540;2022-08-01T00:52:37;10.43;;;5.00;;
2187;SDS011;1100;52.014;8.540;2022-08-01T00:55:04;11.43;;;5.25;;
2187;SDS011;1100;52.014;8.540;2022-08-01T00:57:30;15.40;;;7.07;;
2187;SDS011;1100;52.014;8.540;2022-08-01T00:59:55;11.60;;;6.10;;
2187;SDS011;1100;52.014;8.540;2022-08-01T01:02:21;14.52;;;6.38;;
2187;SDS011;1100;52.014;8.540;2022-08-01T01:04:46;11.80;;;6.23;;
2187;SDS011;1100;52.014;8.540;2022-08-01T01:12:50;14.60;;;6.55;;
2187;SDS011;1100;52.014;8.540;2022-08-01T01:15:17;16.88;;;7.00;;
2187;SDS011;1100;52.014;8.540;2022-08-01T01:18:04;13.37;;;5.73;;
2187;SDS011;1100;52.014;8.540;2022-08-01T01:20:36;12.50;;;5.90;;
2187;SDS011;1100;52.014;8.540;2022-08-01T01:31:34;13.07;;;6.40;;
2187;SDS011;1100;52.014;8.540;2022-08-01T01:34:06;13.90;;;5.95;;
2187;SDS011;1100;52.014;8.540;2022-08-01T01:36:34;13.50;;;6.15;;
2187;SDS011;1100;52.014;8.540;2022-08-01T01:39:02;13.32;;;5.90;;
2187;SDS011;1100;52.014;8.540;2022-08-01T01:41:27;13.63;;;6.37;;
2187;SDS011;1100;52.014;8.540;2022-08-01T01:43:55;11.98;;;5.75;;
2187;SDS011;1100;52.014;8.540;2022-08-01T01:46:22;12.65;;;5.35;;
2187;SDS011;1100;52.014;8.540;2022-08-01T01:48:52;13.82;;;5.93;;
2187;SDS011;1100;52.014;8.540;2022-08-01T01:51:21;10.93;;;5.50;;
2187;SDS011;1100;52.014;8.540;2022-08-01T01:53:49;12.20;;;5.13;;
2187;SDS011;1100;52.014;8.540;2022-08-01T01:56:16;10.98;;;4.60;;
2187;SDS011;1100;52.014;8.540;2022-08-01T01:58:44;9.93;;;4.95;;
2187;SDS011;1100;52.014;8.540;2022-08-01T02:01:13;8.88;;;4.30;;
2187;SDS011;1100;52.014;8.540;2022-08-01T02:03:39;7.93;;;3.83;;
2187;SDS011;1100;52.014;8.540;2022-08-01T02:06:07;7.82;;;3.15;;
2187;SDS011;1100;52.014;8.540;2022-08-01T02:08:33;8.25;;;3.22;;
2187;SDS011;1100;52.014;8.540;2022-08-01T02:11:00;7.80;;;3.10;;
2187;SDS011;1100;52.014;8.540;2022-08-01T02:13:43;9.40;;;2.83;;
2187;SDS011;1100;52.014;8.540;2022-08-01T02:16:09;7.72;;;2.63;;
2187;SDS011;1100;52.014;8.540;2022-08-01T02:18:36;6.30;;;2.67;;
2187;SDS011;1100;52.014;8.540;2022-08-01T02:21:03;6.70;;;2.70;;
2187;SDS011;1100;52.014;8.540;2022-08-01T02:23:31;6.47;;;3.00;;
2187;SDS011;1100;52.014;8.540;2022-08-01T02:25:58;5.32;;;2.45;;
2187;SDS011;1100;52.014;8.540;2022-08-01T02:28:29;10.48;;;3.30;;
2187;SDS011;1100;52.014;8.540;2022-08-01T02:31:01;6.78;;;2.60;;
2187;SDS011;1100;52.014;8.540;2022-08-01T02:33:39;6.83;;;2.30;;
2187;SDS011;1100;52.014;8.540;2022-08-01T02:36:08;6.07;;;2.67;;
2187;SDS011;1100;52.014;8.540;2022-08-01T02:38:36;5.18;;;2.20;;
2187;SDS011;1100;52.014;8.540;2022-08-01T02:41:09;5.38;;;2.10;;
2187;SDS011;1100;52.014;8.540;2022-08-01T02:43:38;6.88;;;2.40;;
2187;SDS011;1100;52.014;8.540;2022-08-01T02:46:08;5.87;;;2.20;;
2187;SDS011;1100;52.014;8.540;2022-08-01T02:48:41;6.50;;;1.95;;
2187;SDS011;1100;52.014;8.540;2022-08-01T02:51:07;6.75;;;2.33;;
2187;SDS011;1100;52.014;8.540;2022-08-01T02:53:36;4.70;;;1.92;;
2187;SDS011;1100;52.014;8.540;2022-08-01T02:56:05;5.68;;;2.25;;
2187;SDS011;1100;52.014;8.540;2022-08-01T02:58:30;5.13;;;2.10;;
2187;SDS011;1100;52.014;8.540;2022-08-01T03:00:58;5.05;;;1.90;;
2187;SDS011;1100;52.014;8.540;2022-08-01T03:03:24;5.57;;;2.15;;
2187;SDS011;1100;52.014;8.540;2022-08-01T03:05:50;5.93;;;2.25;;
2187;SDS011;1100;52.014;8.540;2022-08-01T03:08:16;5.33;;;1.97;;
2187;SDS011;1100;52.014;8.540;2022-08-01T03:10:44;5.15;;;2.30;;
2187;SDS011;1100;52.014;8.540;2022-08-01T03:13:11;6.97;;;1.70;;
2187;SDS011;1100;52.014;8.540;2022-08-01T03:15:39;5.60;;;1.75;;
2187;SDS011;1100;52.014;8.540;2022-08-01T03:18:08;4.70;;;1.90;;
2187;SDS011;1100;52.014;8.540;2022-08-01T03:20:36;6.05;;;2.20;;
2187;SDS011;1100;52.014;8.540;2022-08-01T03:23:03;6.95;;;2.20;;
2187;SDS011;1100;52.014;8.540;2022-08-01T03:25:31;5.18;;;2.40;;
2187;SDS011;1100;52.014;8.540;2022-08-01T03:28:01;4.97;;;2.33;;
2187;SDS011;1100;52.014;8.540;2022-08-01T03:30:28;5.63;;;2.33;;
2187;SDS011;1100;52.014;8.540;2022-08-01T03:32:56;7.32;;;2.30;;
2187;SDS011;1100;52.014;8.540;2022-08-01T03:35:22;7.63;;;2.63;;
2187;SDS011;1100;52.014;8.540;2022-08-01T03:37:52;6.63;;;2.60;;
2187;SDS011;1100;52.014;8.540;2022-08-01T03:43:02;7.50;;;2.88;;
2187;SDS011;1100;52.014;8.540;2022-08-01T03:45:34;5.70;;;2.45;;
2187;SDS011;1100;52.014;8.540;2022-08-01T03:48:02;6.07;;;2.80;;
2187;SDS011;1100;52.014;8.540;2022-08-01T03:50:33;8.88;;;3.35;;
2187;SDS011;1100;52.014;8.540;2022-08-01T03:53:02;6.60;;;2.70;;
2187;SDS011;1100;52.014;8.540;2022-08-01T03:55:29;5.95;;;2.63;;
2187;SDS011;1100;52.014;8.540;2022-08-01T03:57:56;7.90;;;3.47;;
2187;SDS011;1100;52.014;8.540;2022-08-01T04:00:23;6.85;;;3.45;;
2187;SDS011;1100;52.014;8.540;2022-08-01T04:02:49;8.03;;;3.80;;
2187;SDS011;1100;52.014;8.540;2022-08-01T04:05:16;7.50;;;3.40;;
2187;SDS011;1100;52.014;8.540;2022-08-01T04:07:45;7.43;;;4.07;;
2187;SDS011;1100;52.014;8.540;2022-08-01T04:10:11;7.75;;;3.63;;
2187;SDS011;1100;52.014;8.540;2022-08-01T04:12:37;7.20;;;3.70;;
2187;SDS011;1100;52.014;8.540;2022-08-01T04:15:03;8.23;;;4.07;;
2187;SDS011;1100;52.014;8.540;2022-08-01T04:17:29;7.28;;;3.40;;
2187;SDS011;1100;52.014;8.540;2022-08-01T04:19:54;7.00;;;3.40;;
2187;SDS011;1100;52.014;8.540;2022-08-01T04:22:20;7.80;;;3.50;;
2187;SDS011;1100;52.014;8.540;2022-08-01T04:24:46;6.60;;;3.40;;
2187;SDS011;1100;52.014;8.540;2022-08-01T04:27:14;8.43;;;3.70;;
2187;SDS011;1100;52.014;8.540;2022-08-01T04:29:42;7.05;;;3.95;;
2187;SDS011;1100;52.014;8.540;2022-08-01T04:32:11;6.85;;;3.35;;
2187;SDS011;1100;52.014;8.540;2022-08-01T04:34:39;10.02;;;3.85;;
2187;SDS011;1100;52.014;8.540;2022-08-01T04:37:07;9.60;;;4.67;;
2187;SDS011;1100;52.014;8.540;2022-08-01T04:39:35;9.30;;;4.53;;
2187;SDS011;1100;52.014;8.540;2022-08-01T04:42:02;11.40;;;5.38;;
2187;SDS011;1100;52.014;8.540;2022-08-01T04:44:29;8.98;;;4.22;;
2187;SDS011;1100;52.014;8.540;2022-08-01T04:46:57;8.70;;;4.32;;
2187;SDS011;1100;52.014;8.540;2022-08-01T04:49:24;10.60;;;4.63;;
2187;SDS011;1100;52.014;8.540;2022-08-01T04:51:50;8.73;;;4.35;;
2187;SDS011;1100;52.014;8.540;2022-08-01T04:54:29;8.90;;;4.33;;
2187;SDS011;1100;52.014;8.540;2022-08-01T04:56:58;9.18;;;4.10;;
2187;SDS011;1100;52.014;8.540;2022-08-01T04:59:34;9.35;;;5.03;;
2187;SDS011;1100;52.014;8.540;2022-08-01T05:02:14;9.77;;;4.47;;
2187;SDS011;1100;52.014;8.540;2022-08-01T05:04:41;11.68;;;5.10;;
2187;SDS011;1100;52.014;8.540;2022-08-01T05:07:07;7.87;;;4.03;;
2187;SDS011;1100;52.014;8.540;2022-08-01T05:09:34;8.85;;;4.53;;
2187;SDS011;1100;52.014;8.540;2022-08-01T05:12:03;10.93;;;4.63;;
2187;SDS011;1100;52.014;8.540;2022-08-01T05:14:30;10.48;;;4.53;;
2187;SDS011;1100;52.014;8.540;2022-08-01T05:16:57;9.32;;;4.80;;
2187;SDS011;1100;52.014;8.540;2022-08-01T05:19:28;8.73;;;4.20;;
2187;SDS011;1100;52.014;8.540;2022-08-01T05:21:55;8.65;;;4.45;;
2187;SDS011;1100;52.014;8.540;2022-08-01T05:24:21;9.88;;;4.22;;
2187;SDS011;1100;52.014;8.540;2022-08-01T05:26:47;9.90;;;4.65;;
2187;SDS011;1100;52.014;8.540;2022-08-01T05:29:13;9.13;;;4.30;;
2187;SDS011;1100;52.014;8.540;2022-08-01T05:31:39;9.20;;;4.30;;
2187;SDS011;1100;52.014;8.540;2022-08-01T05:34:05;9.20;;;4.13;;
2187;SDS011;1100;52.014;8.540;2022-08-01T05:36:30;9.33;;;4.40;;
2187;SDS011;1100;52.014;8.540;2022-08-01T05:38:55;11.27;;;4.77;;
2187;SDS011;1100;52.014;8.540;2022-08-01T05:41:21;9.20;;;4.93;;
2187;SDS011;1100;52.014;8.540;2022-08-01T05:43:46;9.87;;;5.00;;
2187;SDS011;1100;52.014;8.540;2022-08-01T05:46:11;12.53;;;7.20;;
2187;SDS011;1100;52.014;8.540;2022-08-01T05:48:37;10.20;;;4.10;;
2187;SDS011;1100;52.014;8.540;2022-08-01T05:51:02;10.03;;;4.27;;
2187;SDS011;1100;52.014;8.540;2022-08-01T05:53:28;10.27;;;4.28;;
2187;SDS011;1100;52.014;8.540;2022-08-01T05:55:53;8.60;;;4.60;;
2187;SDS011;1100;52.014;8.540;2022-08-01T05:58:19;8.98;;;4.13;;
2187;SDS011;1100;52.014;8.540;2022-08-01T06:00:44;8.53;;;4.00;;
2187;SDS011;1100;52.014;8.540;2022-08-01T06:03:10;8.47;;;3.97;;
2187;SDS011;1100;52.014;8.540;2022-08-01T06:05:36;13.43;;;5.55;;
2187;SDS011;1100;52.014;8.540;2022-08-01T06:08:01;10.23;;;4.40;;
2187;SDS011;1100;52.014;8.540;2022-08-01T06:10:27;14.07;;;5.32;;
2187;SDS011;1100;52.014;8.540;2022-08-01T06:12:52;10.67;;;4.80;;
2187;SDS011;1100;52.014;8.540;2022-08-01T06:15:18;13.33;;;5.77;;
2187;SDS011;1100;52.014;8.540;2022-08-01T06:17:43;11.77;;;4.70;;
2187;SDS011;1100;52.014;8.540;2022-08-01T06:20:09;9.07;;;4.05;;
2187;SDS011;1100;52.014;8.540;2022-08-01T06:22:34;19.90;;;6.50;;
2187;SDS011;1100;52.014;8.540;2022-08-01T06:25:00;17.67;;;6.87;;
2187;SDS011;1100;52.014;8.540;2022-08-01T12:55:58;7.88;;;3.85;;
2187;SDS011;1100;52.014;8.540;2022-08-01T12:58:23;9.37;;;3.73;;
2187;SDS011;1100;52.014;8.540;2022-08-01T13:00:49;8.27;;;3.80;;
2187;SDS011;1100;52.014;8.540;2022-08-01T13:03:27;8.20;;;3.22;;
2187;SDS011;1100;52.014;8.540;2022-08-01T13:05:57;6.47;;;2.90;;
2187;SDS011;1100;52.014;8.540;2022-08-01T13:10:50;7.30;;;3.15;;
2187;SDS011;1100;52.014;8.540;2022-08-01T13:13:26;7.70;;;2.80;;
2187;SDS011;1100;52.014;8.540;2022-08-01T13:16:03;5.30;;;2.88;;
2187;SDS011;1100;52.014;8.540;2022-08-01T13:18:33;8.73;;;3.22;;
2187;SDS011;1100;52.014;8.540;2022-08-01T13:21:11;8.23;;;3.35;;
2187;SDS011;1100;52.014;8.540;2022-08-01T13:23:37;7.22;;;3.10;;
2187;SDS011;1100;52.014;8.540;2022-08-01T13:26:03;9.10;;;3.30;;
2187;SDS011;1100;52.014;8.540;2022-08-01T13:28:29;7.20;;;3.22;;
2187;SDS011;1100;52.014;8.540;2022-08-01T13:31:06;7.13;;;3.08;;
2187;SDS011;1100;52.014;8.540;2022-08-01T13:33:45;8.43;;;3.53;;
2187;SDS011;1100;52.014;8.540;2022-08-01T13:36:12;6.95;;;2.60;;
2187;SDS011;1100;52.014;8.540;2022-08-01T13:38:38;8.03;;;2.87;;
2187;SDS011;1100;52.014;8.540;2022-08-01T13:41:23;5.57;;;2.40;;
2187;SDS011;1100;52.014;8.540;2022-08-01T13:43:49;7.90;;;3.13;;
2187;SDS011;1100;52.014;8.540;2022-08-01T13:46:14;7.47;;;2.90;;
2187;SDS011;1100;52.014;8.540;2022-08-01T13:48:40;8.33;;;2.90;;
2187;SDS011;1100;52.014;8.540;2022-08-01T13:51:05;5.88;;;2.42;;
2187;SDS011;1100;52.014;8.540;2022-08-01T13:53:31;5.77;;;2.50;;
2187;SDS011;1100;52.014;8.540;2022-08-01T13:55:56;7.00;;;2.50;;
2187;SDS011;1100;52.014;8.540;2022-08-01T13:58:21;4.67;;;2.20;;
2187;SDS011;1100;52.014;8.540;2022-08-01T14:00:47;5.87;;;2.37;;
2187;SDS011;1100;52.014;8.540;2022-08-01T14:03:13;6.78;;;2.33;;
2187;SDS011;1100;52.014;8.540;2022-08-01T14:05:38;5.82;;;2.50;;
2187;SDS011;1100;52.014;8.540;2022-08-01T14:08:04;4.83;;;2.10;;
2187;SDS011;1100;52.014;8.540;2022-08-01T14:10:31;6.28;;;2.10;;
2187;SDS011;1100;52.014;8.540;2022-08-01T14:12:56;6.30;;;2.60;;
2187;SDS011;1100;52.014;8.540;2022-08-01T14:15:22;5.05;;;2.15;;
2187;SDS011;1100;52.014;8.540;2022-08-01T14:17:48;5.75;;;2.47;;
2187;SDS011;1100;52.014;8.540;2022-08-01T14:20:14;5.57;;;2.30;;
2187;SDS011;1100;52.014;8.540;2022-08-01T14:22:39;5.50;;;2.20;;
2187;SDS011;1100;52.014;8.540;2022-08-01T14:25:05;5.03;;;2.00;;
2187;SDS011;1100;52.014;8.540;2022-08-01T14:27:31;6.07;;;2.10;;
2187;SDS011;1100;52.014;8.540;2022-08-01T14:30:00;7.30;;;2.30;;
2187;SDS011;1100;52.014;8.540;2022-08-01T14:32:26;6.65;;;2.33;;
2187;SDS011;1100;52.014;8.540;2022-08-01T14:34:52;6.70;;;2.60;;
2187;SDS011;1100;52.014;8.540;2022-08-01T14:37:17;6.47;;;2.70;;
2187;SDS011;1100;52.014;8.540;2022-08-01T14:39:42;4.40;;;1.90;;
2187;SDS011;1100;52.014;8.540;2022-08-01T14:42:08;4.37;;;2.10;;
2187;SDS011;1100;52.014;8.540;2022-08-01T14:44:33;5.17;;;2.10;;
2187;SDS011;1100;52.014;8.540;2022-08-01T14:46:58;4.50;;;2.00;;
2187;SDS011;1100;52.014;8.540;2022-08-01T14:49:24;4.73;;;1.80;;
2187;SDS011;1100;52.014;8.540;2022-08-01T14:51:49;5.13;;;2.20;;
2187;SDS011;1100;52.014;8.540;2022-08-01T14:54:14;5.83;;;2.33;;
2187;SDS011;1100;52.014;8.540;2022-08-01T14:56:40;4.80;;;2.03;;
2187;SDS011;1100;52.014;8.540;2022-08-01T14:59:05;6.77;;;2.60;;
2187;SDS011;1100;52.014;8.540;2022-08-01T15:01:30;6.87;;;2.60;;
2187;SDS011;1100;52.014;8.540;2022-08-01T15:03:56;7.10;;;2.90;;
2187;SDS011;1100;52.014;8.540;2022-08-01T15:06:22;7.13;;;2.80;;
2187;SDS011;1100;52.014;8.540;2022-08-01T15:08:47;7.95;;;2.70;;
2187;SDS011;1100;52.014;8.540;2022-08-01T15:11:12;7.50;;;3.00;;
2187;SDS011;1100;52.014;8.540;2022-08-01T15:13:38;9.50;;;3.00;;
2187;SDS011;1100;52.014;8.540;2022-08-01T15:16:03;5.47;;;2.37;;
2187;SDS011;1100;52.014;8.540;2022-08-01T15:18:28;9.23;;;2.80;;
2187;SDS011;1100;52.014;8.540;2022-08-01T15:20:54;6.30;;;2.50;;
2187;SDS011;1100;52.014;8.540;2022-08-01T15:23:20;6.35;;;2.47;;
2187;SDS011;1100;52.014;8.540;2022-08-01T15:25:46;6.77;;;2.43;;
2187;SDS011;1100;52.014;8.540;2022-08-01T15:28:11;4.40;;;2.15;;
2187;SDS011;1100;52.014;8.540;2022-08-01T15:30:37;9.10;;;2.20;;
2187;SDS011;1100;52.014;8.540;2022-08-01T15:33:03;9.65;;;3.00;;
2187;SDS011;1100;52.014;8.540;2022-08-01T15:35:29;9.68;;;2.80;;
2187;SDS011;1100;52.014;8.540;2022-08-01T15:37:55;8.90;;;2.23;;
2187;SDS011;1100;52.014;8.540;2022-08-01T15:40:20;8.23;;;2.30;;
2187;SDS011;1100;52.014;8.540;2022-08-01T15:42:46;7.22;;;2.33;;
2187;SDS011;1100;52.014;8.540;2022-08-01T15:45:11;7.57;;;2.70;;
2187;SDS011;1100;52.014;8.540;2022-08-01T15:47:41;6.68;;;2.45;;
2187;SDS011;1100;52.014;8.540;2022-08-01T15:50:06;9.47;;;2.70;;
2187;SDS011;1100;52.014;8.540;2022-08-01T15:52:32;11.07;;;3.40;;
2187;SDS011;1100;52.014;8.540;2022-08-01T15:54:57;8.30;;;3.43;;
2187;SDS011;1100;52.014;8.540;2022-08-01T15:57:23;7.90;;;2.83;;
2187;SDS011;1100;52.014;8.540;2022-08-01T15:59:48;6.07;;;2.47;;
2187;SDS011;1100;52.014;8.540;2022-08-01T16:02:13;8.47;;;2.73;;
2187;SDS011;1100;52.014;8.540;2022-08-01T16:04:39;8.73;;;2.70;;
2187;SDS011;1100;52.014;8.540;2022-08-01T16:07:04;8.13;;;2.47;;
2187;SDS011;1100;52.014;8.540;2022-08-01T16:09:30;7.50;;;2.23;;
2187;SDS011;1100;52.014;8.540;2022-08-01T16:11:56;7.05;;;2.20;;
2187;SDS011;1100;52.014;8.540;2022-08-01T16:14:21;8.17;;;2.30;;
2187;SDS011;1100;52.014;8.540;2022-08-01T16:16:47;6.83;;;2.00;;
2187;SDS011;1100;52.014;8.540;2022-08-01T16:19:12;7.50;;;2.13;;
2187;SDS011;1100;52.014;8.540;2022-08-01T16:21:38;7.30;;;2.20;;
2187;SDS011;1100;52.014;8.540;2022-08-01T16:24:04;9.10;;;2.40;;
2187;SDS011;1100;52.014;8.540;2022-08-01T16:26:29;6.45;;;2.03;;
2187;SDS011;1100;52.014;8.540;2022-08-01T16:28:55;5.13;;;1.97;;
2187;SDS011;1100;52.014;8.540;2022-08-01T16:31:21;5.82;;;2.05;;
2187;SDS011;1100;52.014;8.540;2022-08-01T16:33:47;8.03;;;2.00;;
2187;SDS011;1100;52.014;8.540;2022-08-01T16:36:13;8.38;;;2.10;;
2187;SDS011;1100;52.014;8.540;2022-08-01T16:38:39;8.40;;;2.03;;
2187;SDS011;1100;52.014;8.540;2022-08-01T16:41:07;6.60;;;2.05;;
2187;SDS011;1100;52.014;8.540;2022-08-01T16:43:32;7.37;;;2.00;;
2187;SDS011;1100;52.014;8.540;2022-08-01T16:45:57;8.02;;;2.10;;
2187;SDS011;1100;52.014;8.540;2022-08-01T16:48:22;9.13;;;2.00;;
2187;SDS011;1100;52.014;8.540;2022-08-01T16:50:48;9.50;;;2.23;;
2187;SDS011;1100;52.014;8.540;2022-08-01T16:53:21;7.50;;;2.08;;
2187;SDS011;1100;52.014;8.540;2022-08-01T16:55:47;9.30;;;2.10;;
2187;SDS011;1100;52.014;8.540;2022-08-01T16:58:14;7.63;;;2.10;;
2187;SDS011;1100;52.014;8.540;2022-08-01T17:00:40;7.15;;;2.17;;
2187;SDS011;1100;52.014;8.540;2022-08-01T17:03:11;8.65;;;2.35;;
2187;SDS011;1100;52.014;8.540;2022-08-01T17:05:37;6.85;;;1.75;;
2187;SDS011;1100;52.014;8.540;2022-08-01T17:08:06;10.87;;;2.40;;
2187;SDS011;1100;52.014;8.540;2022-08-01T17:10:32;8.23;;;1.92;;
2187;SDS011;1100;52.014;8.540;2022-08-01T17:12:58;7.00;;;1.90;;
2187;SDS011;1100;52.014;8.540;2022-08-01T17:15:24;6.90;;;1.80;;
2187;SDS011;1100;52.014;8.540;2022-08-01T17:17:50;6.77;;;1.90;;
2187;SDS011;1100;52.014;8.540;2022-08-01T17:20:18;7.05;;;2.00;;
2187;SDS011;1100;52.014;8.540;2022-08-01T17:22:44;8.35;;;1.98;;
2187;SDS011;1100;52.014;8.540;2022-08-01T17:25:09;5.50;;;1.63;;
2187;SDS011;1100;52.014;8.540;2022-08-01T17:27:34;7.47;;;1.80;;
2187;SDS011;1100;52.014;8.540;2022-08-01T17:30:00;6.40;;;1.93;;
2187;SDS011;1100;52.014;8.540;2022-08-01T17:32:25;8.73;;;2.00;;
2187;SDS011;1100;52.014;8.540;2022-08-01T17:34:50;6.07;;;1.55;;
2187;SDS011;1100;52.014;8.540;2022-08-01T17:37:15;8.77;;;2.50;;
2187;SDS011;1100;52.014;8.540;2022-08-01T17:39:41;5.27;;;2.00;;
2187;SDS011;1100;52.014;8.540;2022-08-01T17:42:07;6.33;;;1.87;;
2187;SDS011;1100;52.014;8.540;2022-08-01T17:44:33;5.78;;;1.95;;
2187;SDS011;1100;52.014;8.540;2022-08-01T17:46:58;7.03;;;1.80;;
2187;SDS011;1100;52.014;8.540;2022-08-01T17:49:24;7.33;;;2.10;;
2187;SDS011;1100;52.014;8.540;2022-08-01T17:51:50;9.15;;;2.45;;
2187;SDS011;1100;52.014;8.540;2022-08-01T17:54:16;5.97;;;1.70;;
2187;SDS011;1100;52.014;8.540;2022-08-01T17:56:41;9.32;;;1.80;;
2187;SDS011;1100;52.014;8.540;2022-08-01T17:59:07;6.33;;;1.73;;
2187;SDS011;1100;52.014;8.540;2022-08-01T18:01:32;7.70;;;1.60;;
2187;SDS011;1100;52.014;8.540;2022-08-01T18:03:59;7.55;;;1.80;;
2187;SDS011;1100;52.014;8.540;2022-08-01T18:06:25;8.40;;;1.83;;
2187;SDS011;1100;52.014;8.540;2022-08-01T18:08:52;5.20;;;1.40;;
2187;SDS011;1100;52.014;8.540;2022-08-01T18:11:17;5.20;;;1.65;;
2187;SDS011;1100;52.014;8.540;2022-08-01T18:13:43;6.20;;;1.97;;
2187;SDS011;1100;52.014;8.540;2022-08-01T18:16:09;7.43;;;1.83;;
2187;SDS011;1100;52.014;8.540;2022-08-01T18:18:36;6.57;;;2.00;;
2187;SDS011;1100;52.014;8.540;2022-08-01T18:21:03;8.77;;;2.40;;
2187;SDS011;1100;52.014;8.540;2022-08-01T18:23:29;7.87;;;2.00;;
2187;SDS011;1100;52.014;8.540;2022-08-01T18:25:57;5.60;;;1.70;;
2187;SDS011;1100;52.014;8.540;2022-08-01T18:28:25;7.13;;;2.00;;
2187;SDS011;1100;52.014;8.540;2022-08-01T18:30:52;6.22;;;1.70;;
2187;SDS011;1100;52.014;8.540;2022-08-01T18:33:21;6.32;;;2.20;;
2187;SDS011;1100;52.014;8.540;2022-08-01T18:35:46;6.63;;;1.83;;
2187;SDS011;1100;52.014;8.540;2022-08-01T18:38:12;9.90;;;2.10;;
2187;SDS011;1100;52.014;8.540;2022-08-01T18:40:37;7.63;;;2.20;;
2187;SDS011;1100;52.014;8.540;2022-08-01T18:43:03;5.77;;;1.80;;
2187;SDS011;1100;52.014;8.540;2022-08-01T18:45:28;5.70;;;2.10;;
2187;SDS011;1100;52.014;8.540;2022-08-01T18:47:54;6.40;;;1.97;;
2187;SDS011;1100;52.014;8.540;2022-08-01T18:50:20;4.93;;;2.00;;
2187;SDS011;1100;52.014;8.540;2022-08-01T18:52:48;8.95;;;2.53;;
2187;SDS011;1100;52.014;8.540;2022-08-01T18:55:13;9.00;;;2.17;;
2187;SDS011;1100;52.014;8.540;2022-08-01T18:57:39;7.43;;;1.70;;
2187;SDS011;1100;52.014;8.540;2022-08-01T19:00:04;7.77;;;2.70;;
2187;SDS011;1100;52.014;8.540;2022-08-01T19:02:30;8.57;;;2.50;;
2187;SDS011;1100;52.014;8.540;2022-08-01T19:04:55;8.50;;;2.23;;
2187;SDS011;1100;52.014;8.540;2022-08-01T19:07:20;6.97;;;1.93;;
2187;SDS011;1100;52.014;8.540;2022-08-01T19:09:46;5.57;;;1.80;;
2187;SDS011;1100;52.014;8.540;2022-08-01T19:12:11;5.53;;;2.13;;
2187;SDS011;1100;52.014;8.540;2022-08-01T19:14:36;6.47;;;1.70;;
2187;SDS011;1100;52.014;8.540;2022-08-01T19:17:02;8.00;;;1.77;;
2187;SDS011;1100;52.014;8.540;2022-08-01T19:19:27;6.27;;;2.00;;
2187;SDS011;1100;52.014;8.540;2022-08-01T19:21:52;6.83;;;1.90;;
2187;SDS011;1100;52.014;8.540;2022-08-01T19:24:18;5.80;;;1.67;;
2187;SDS011;1100;52.014;8.540;2022-08-01T19:29:17;8.88;;;2.25;;
2187;SDS011;1100;52.014;8.540;2022-08-01T19:31:47;8.20;;;1.85;;
2187;SDS011;1100;52.014;8.540;2022-08-01T19:34:15;7.07;;;1.90;;
2187;SDS011;1100;52.014;8.540;2022-08-01T19:36:45;7.10;;;2.20;;
2187;SDS011;1100;52.014;8.540;2022-08-01T19:39:13;6.93;;;1.80;;
2187;SDS011;1100;52.014;8.540;2022-08-01T19:41:41;7.10;;;2.20;;
2187;SDS011;1100;52.014;8.540;2022-08-01T19:44:07;7.22;;;1.98;;
2187;SDS011;1100;52.014;8.540;2022-08-01T19:46:36;9.13;;;1.90;;
2187;SDS011;1100;52.014;8.540;2022-08-01T19:49:03;8.50;;;1.85;;
2187;SDS011;1100;52.014;8.540;2022-08-01T19:51:29;8.57;;;1.73;;
2187;SDS011;1100;52.014;8.540;2022-08-01T19:53:56;7.57;;;1.50;;
2187;SDS011;1100;52.014;8.540;2022-08-01T19:56:29;5.45;;;1.55;;
2187;SDS011;1100;52.014;8.540;2022-08-01T19:59:01;5.90;;;1.70;;
2187;SDS011;1100;52.014;8.540;2022-08-01T20:01:28;5.80;;;2.00;;
2187;SDS011;1100;52.014;8.540;2022-08-01T20:03:54;5.22;;;1.60;;
2187;SDS011;1100;52.014;8.540;2022-08-01T20:06:20;6.83;;;1.67;;
2187;SDS011;1100;52.014;8.540;2022-08-01T20:08:46;4.95;;;1.63;;
2187;SDS011;1100;52.014;8.540;2022-08-01T20:11:12;6.07;;;1.63;;
2187;SDS011;1100;52.014;8.540;2022-08-01T20:13:37;7.43;;;1.87;;
2187;SDS011;1100;52.014;8.540;2022-08-01T20:16:04;7.22;;;1.90;;
2187;SDS011;1100;52.014;8.540;2022-08-01T20:18:29;7.55;;;2.50;;
2187;SDS011;1100;52.014;8.540;2022-08-01T20:20:55;7.77;;;1.97;;
2187;SDS011;1100;52.014;8.540;2022-08-01T20:23:22;6.97;;;1.92;;
2187;SDS011;1100;52.014;8.540;2022-08-01T20:25:50;9.38;;;1.98;;
2187;SDS011;1100;52.014;8.540;2022-08-01T20:28:20;10.43;;;2.33;;
2187;SDS011;1100;52.014;8.540;2022-08-01T20:30:49;7.18;;;1.58;;
2187;SDS011;1100;52.014;8.540;2022-08-01T20:33:18;6.45;;;1.70;;
2187;SDS011;1100;52.014;8.540;2022-08-01T20:35:43;5.37;;;1.60;;
2187;SDS011;1100;52.014;8.540;2022-08-01T20:38:10;5.20;;;1.77;;
2187;SDS011;1100;52.014;8.540;2022-08-01T20:40:36;5.78;;;1.90;;
2187;SDS011;1100;52.014;8.540;2022-08-01T20:43:03;6.10;;;1.70;;
2187;SDS011;1100;52.014;8.540;2022-08-01T20:45:31;7.10;;;2.10;;
2187;SDS011;1100;52.014;8.540;2022-08-01T20:47:57;7.57;;;1.80;;
2187;SDS011;1100;52.014;8.540;2022-08-01T20:50:25;7.00;;;1.70;;
2187;SDS011;1100;52.014;8.540;2022-08-01T20:53:09;8.00;;;2.40;;
2187;SDS011;1100;52.014;8.540;2022-08-01T20:55:41;7.90;;;2.40;;
2187;SDS011;1100;52.014;8.540;2022-08-01T20:58:19;7.28;;;2.10;;
2187;SDS011;1100;52.014;8.540;2022-08-01T21:00:51;5.97;;;2.17;;
2187;SDS011;1100;52.014;8.540;2022-08-01T21:03:21;6.43;;;2.10;;
2187;SDS011;1100;52.014;8.540;2022-08-01T21:05:53;8.00;;;2.17;;
2187;SDS011;1100;52.014;8.540;2022-08-01T21:08:23;6.32;;;2.30;;
2187;SDS011;1100;52.014;8.540;2022-08-01T21:10:58;8.13;;;2.47;;
2187;SDS011;1100;52.014;8.540;2022-08-01T21:13:32;7.70;;;2.50;;
2187;SDS011;1100;52.014;8.540;2022-08-01T21:16:02;6.23;;;2.43;;
2187;SDS011;1100;52.014;8.540;2022-08-01T21:18:43;8.10;;;2.53;;
2187;SDS011;1100;52.014;8.540;2022-08-01T21:21:16;7.35;;;2.00;;
2187;SDS011;1100;52.014;8.540;2022-08-01T21:23:47;6.00;;;2.20;;
2187;SDS011;1100;52.014;8.540;2022-08-01T21:26:22;10.85;;;2.22;;
2187;SDS011;1100;52.014;8.540;2022-08-01T21:28:49;6.97;;;2.17;;
2187;SDS011;1100;52.014;8.540;2022-08-01T21:31:19;8.13;;;1.95;;
2187;SDS011;1100;52.014;8.540;2022-08-01T21:33:46;8.00;;;2.50;;
2187;SDS011;1100;52.014;8.540;2022-08-01T21:36:12;8.82;;;2.40;;
2187;SDS011;1100;52.014;8.540;2022-08-01T21:38:39;6.63;;;2.15;;
2187;SDS011;1100;52.014;8.540;2022-08-01T21:41:06;8.97;;;2.47;;
2187;SDS011;1100;52.014;8.540;2022-08-01T21:43:32;7.07;;;2.58;;
2187;SDS011;1100;52.014;8.540;2022-08-01T21:45:59;6.78;;;2.30;;
2187;SDS011;1100;52.014;8.540;2022-08-01T21:48:25;7.28;;;2.30;;
2187;SDS011;1100;52.014;8.540;2022-08-01T21:50:58;5.90;;;2.03;;
2187;SDS011;1100;52.014;8.540;2022-08-01T21:56:37;7.13;;;1.90;;
2187;SDS011;1100;52.014;8.540;2022-08-01T22:02:02;6.78;;;2.20;;
2187;SDS011;1100;52.014;8.540;2022-08-01T22:04:36;7.13;;;2.13;;
2187;SDS011;1100;52.014;8.540;2022-08-01T22:07:07;8.77;;;2.28;;
2187;SDS011;1100;52.014;8.540;2022-08-01T22:09:35;7.03;;;2.38;;